Time;durP1;ratioP1;P1;durP2;ratioP2;P2;SDS_P1;SDS_P2;PMS_P1;PMS_P2;Temp;Humidity;BMP_temperature;BMP_pressure;BME280_temperature;BME280_humidity;BME280_pressure;Samples;Min_cycle;Max_cycle;Signal;HPM_P1;HPM_P2
2022/02/18 00:02:14;;;;;;;26.27;5.40;;;5.80;83.30;;;;;;5022843;28;20184;-92
2022/02/18 00:04:39;;;;;;;30.67;6.20;;;5.80;83.70;;;;;;5023616;28;20210;-92
2022/02/18 00:07:05;;;;;;;34.53;7.07;;;5.80;83.70;;;;;;5023090;28;20201;-91
2022/02/18 00:09:31;;;;;;;35.00;6.63;;;5.90;83.50;;;;;;5043985;28;20524;-93
2022/02/18 00:11:57;;;;;;;25.27;5.90;;;5.80;83.60;;;;;;5027619;28;20199;-93
2022/02/18 00:14:22;;;;;;;31.27;6.23;;;5.80;83.80;;;;;;5027141;28;20187;-92
2022/02/18 00:16:48;;;;;;;28.23;6.00;;;5.80;84.20;;;;;;5030877;28;20173;-92
2022/02/18 00:19:13;;;;;;;29.07;5.60;;;5.80;84.00;;;;;;5044093;28;20176;-92
2022/02/18 00:21:39;;;;;;;26.20;5.33;;;5.80;83.60;;;;;;5026757;28;20183;-92
2022/02/18 00:24:10;;;;;;;35.90;7.23;;;5.80;83.10;;;;;;5029237;28;20180;-92
2022/02/18 00:26:36;;;;;;;25.17;5.50;;;5.80;82.90;;;;;;5032118;28;20188;-93
2022/02/18 00:29:02;;;;;;;24.50;5.93;;;5.80;83.00;;;;;;5033785;28;20227;-93
2022/02/18 00:31:30;;;;;;;34.93;6.23;;;5.80;83.00;;;;;;5029016;28;20211;-92
2022/02/18 00:33:56;;;;;;;31.17;5.77;;;5.70;83.00;;;;;;5025170;28;20654;-93
2022/02/18 00:36:22;;;;;;;29.10;7.00;;;5.70;82.50;;;;;;5028620;28;20183;-92
2022/02/18 00:38:47;;;;;;;28.90;5.97;;;5.70;82.70;;;;;;5023367;28;20200;-92
2022/02/18 00:41:13;;;;;;;29.33;5.90;;;5.70;82.80;;;;;;5022082;28;20183;-91
2022/02/18 00:43:39;;;;;;;35.23;5.97;;;5.60;83.10;;;;;;5024889;28;20180;-91
2022/02/18 00:46:05;;;;;;;28.03;4.83;;;5.70;83.40;;;;;;5025043;28;20217;-92
2022/02/18 00:48:31;;;;;;;31.00;6.73;;;5.60;83.50;;;;;;5023752;28;20293;-92
2022/02/18 00:50:57;;;;;;;27.93;4.90;;;5.60;83.30;;;;;;5026705;28;20216;-93
2022/02/18 00:53:29;;;;;;;40.00;5.27;;;5.60;83.20;;;;;;5034218;28;20189;-93
2022/02/18 00:55:55;;;;;;;27.07;5.80;;;5.60;82.80;;;;;;5050496;28;20677;-93
2022/02/18 00:58:24;;;;;;;23.90;4.70;;;5.50;82.90;;;;;;5028473;28;20205;-92
2022/02/18 01:00:50;;;;;;;28.90;5.20;;;5.50;82.40;;;;;;5020889;28;20246;-92
2022/02/18 01:03:17;;;;;;;34.60;5.47;;;5.40;82.30;;;;;;5019011;28;20175;-92
2022/02/18 01:05:47;;;;;;;25.97;5.27;;;5.40;82.10;;;;;;5022500;28;20202;-92
2022/02/18 01:08:18;;;;;;;30.60;5.00;;;5.30;82.20;;;;;;5027033;28;20208;-92
2022/02/18 01:10:44;;;;;;;34.50;5.60;;;5.30;82.50;;;;;;5031787;28;20162;-92
2022/02/18 01:13:12;;;;;;;34.88;6.57;;;5.20;82.60;;;;;;5035285;28;20473;-92
2022/02/18 01:15:43;;;;;;;27.20;5.50;;;5.10;82.60;;;;;;5038801;28;20180;-92
2022/02/18 01:18:09;;;;;;;29.97;5.67;;;5.10;82.30;;;;;;5039361;28;20210;-93
2022/02/18 01:20:38;;;;;;;21.30;5.13;;;5.00;82.10;;;;;;5040224;28;20234;-93
2022/02/18 01:23:06;;;;;;;31.63;5.47;;;5.00;82.30;;;;;;5039330;28;20527;-92
2022/02/18 01:25:32;;;;;;;29.17;5.57;;;5.00;82.00;;;;;;5032396;28;20172;-92
2022/02/18 01:27:57;;;;;;;28.23;4.93;;;5.10;81.60;;;;;;5020227;28;20207;-92
2022/02/18 01:30:37;;;;;;;29.30;5.47;;;5.00;81.80;;;;;;5038781;28;20186;-92
2022/02/18 01:33:03;;;;;;;23.93;5.17;;;5.00;81.60;;;;;;5034565;28;20274;-92
2022/02/18 01:35:29;;;;;;;21.10;4.33;;;4.80;82.10;;;;;;5037308;28;20224;-92
2022/02/18 01:40:31;;;;;;;36.60;5.10;;;4.80;82.20;;;;;;5071793;28;20218;-93
2022/02/18 01:42:57;;;;;;;18.73;4.47;;;4.80;82.10;;;;;;5053541;28;20182;-93
2022/02/18 01:45:23;;;;;;;26.93;5.07;;;4.70;82.30;;;;;;5051956;28;20177;-93
2022/02/18 01:47:55;;;;;;;22.30;5.37;;;4.80;82.20;;;;;;5050751;28;20208;-93
2022/02/18 01:50:21;;;;;;;19.63;5.37;;;4.80;82.10;;;;;;5070999;28;20188;-93
2022/02/18 01:52:49;;;;;;;19.73;3.80;;;4.70;82.50;;;;;;5057747;28;20316;-93
2022/02/18 01:55:16;;;;;;;28.83;4.47;;;4.70;82.70;;;;;;5056178;28;20176;-93
2022/02/18 01:57:48;;;;;;;25.03;5.03;;;4.60;82.80;;;;;;5057076;28;20180;-93
2022/02/18 02:00:16;;;;;;;27.20;4.33;;;4.60;82.90;;;;;;5054137;28;20180;-93
2022/02/18 02:02:43;;;;;;;31.57;5.17;;;4.50;83.20;;;;;;5072075;28;20239;-93
2022/02/18 02:05:10;;;;;;;26.83;5.33;;;4.50;83.50;;;;;;5072611;28;20176;-93
2022/02/18 02:07:38;;;;;;;25.47;4.53;;;4.50;83.70;;;;;;5054938;28;20204;-94
2022/02/18 02:10:05;;;;;;;31.67;4.40;;;4.50;83.80;;;;;;5054630;28;20184;-93
2022/02/18 02:12:30;;;;;;;28.50;4.70;;;4.50;84.10;;;;;;5053668;28;20207;-92
2022/02/18 02:14:56;;;;;;;32.33;6.60;;;4.50;84.40;;;;;;5053284;28;20164;-93
2022/02/18 02:17:21;;;;;;;29.00;5.07;;;4.50;84.90;;;;;;5051753;28;20234;-92
2022/02/18 02:19:49;;;;;;;15.80;5.03;;;4.40;85.20;;;;;;5049843;28;20177;-93
2022/02/18 02:22:16;;;;;;;21.57;4.40;;;4.40;85.50;;;;;;5051883;28;20626;-93
2022/02/18 02:24:42;;;;;;;16.80;3.60;;;4.40;85.50;;;;;;5049825;28;20216;-93
2022/02/18 02:27:08;;;;;;;25.10;4.43;;;4.30;85.80;;;;;;5048660;28;20196;-93
2022/02/18 02:29:33;;;;;;;19.40;4.57;;;4.30;86.00;;;;;;5047381;28;20284;-93
2022/02/18 02:31:59;;;;;;;26.40;4.60;;;4.30;86.20;;;;;;5064985;28;20235;-93
2022/02/18 02:34:25;;;;;;;28.87;5.80;;;4.30;86.30;;;;;;5049281;28;20190;-93
2022/02/18 02:36:52;;;;;;;15.50;3.93;;;4.30;86.40;;;;;;5046279;28;20199;-92
2022/02/18 02:39:17;;;;;;;23.57;5.40;;;4.30;86.70;;;;;;5047514;28;20253;-93
2022/02/18 02:41:44;;;;;;;20.63;4.70;;;4.20;86.70;;;;;;5047934;28;20610;-93
2022/02/18 02:44:09;;;;;;;29.83;5.33;;;4.20;86.80;;;;;;5067910;28;20542;-92
2022/02/18 02:46:36;;;;;;;26.13;4.63;;;4.20;86.80;;;;;;5066553;28;20180;-93
2022/02/18 02:49:03;;;;;;;26.37;5.03;;;4.20;87.00;;;;;;5065993;28;20199;-93
2022/02/18 02:51:29;;;;;;;25.23;4.20;;;4.20;87.00;;;;;;5047157;28;20262;-93
2022/02/18 02:53:54;;;;;;;24.77;4.90;;;4.20;87.10;;;;;;5049097;28;20642;-93
2022/02/18 02:56:20;;;;;;;26.00;5.77;;;4.20;87.30;;;;;;5065036;28;20261;-93
2022/02/18 02:58:45;;;;;;;22.30;4.40;;;4.20;87.30;;;;;;5066518;28;20226;-93
2022/02/18 03:01:11;;;;;;;18.67;5.43;;;4.20;87.40;;;;;;5049883;28;20190;-93
2022/02/18 03:03:37;;;;;;;22.10;5.83;;;4.10;87.50;;;;;;5047240;28;20188;-93
2022/02/18 03:06:05;;;;;;;23.30;6.17;;;4.20;87.60;;;;;;5065662;28;20172;-93
2022/02/18 03:08:31;;;;;;;34.23;5.83;;;4.20;87.70;;;;;;5048912;28;20219;-93
2022/02/18 03:11:15;;;;;;;28.43;5.23;;;4.20;87.60;;;;;;5048038;28;20207;-93
2022/02/18 03:13:41;;;;;;;33.60;5.30;;;4.20;87.80;;;;;;5048067;28;20175;-93
2022/02/18 03:16:09;;;;;;;30.67;5.37;;;4.20;87.80;;;;;;5046528;28;20172;-93
2022/02/18 03:18:35;;;;;;;21.17;4.73;;;4.20;88.00;;;;;;5061908;28;20192;-92
2022/02/18 03:21:01;;;;;;;24.23;5.10;;;4.20;88.10;;;;;;5043763;28;20209;-93
2022/02/18 03:23:26;;;;;;;33.43;5.17;;;4.10;88.10;;;;;;5043949;28;20188;-93
2022/02/18 03:25:52;;;;;;;24.30;4.47;;;4.20;88.40;;;;;;5042860;28;20207;-92
2022/02/18 03:28:17;;;;;;;25.27;4.97;;;4.10;88.30;;;;;;5043962;28;20200;-93
2022/02/18 03:30:43;;;;;;;25.13;5.60;;;4.20;88.40;;;;;;5046158;28;20195;-93
2022/02/18 03:33:12;;;;;;;35.83;5.70;;;4.20;88.30;;;;;;5044318;28;20191;-92
2022/02/18 03:35:38;;;;;;;28.53;5.13;;;4.20;88.30;;;;;;5044123;28;20271;-92
2022/02/18 03:38:04;;;;;;;29.43;6.33;;;4.20;88.30;;;;;;5044949;28;20196;-93
2022/02/18 03:40:30;;;;;;;27.10;5.23;;;4.20;88.30;;;;;;5042617;28;20184;-93
2022/02/18 03:42:58;;;;;;;13.17;3.93;;;4.20;88.40;;;;;;5060906;28;20267;-92
2022/02/18 03:45:25;;;;;;;19.13;4.57;;;4.20;88.40;;;;;;5060401;28;20270;-92
2022/02/18 03:47:50;;;;;;;27.07;4.40;;;4.20;88.50;;;;;;5043628;28;20292;-92
2022/02/18 03:50:16;;;;;;;15.53;4.60;;;4.20;88.60;;;;;;5042543;28;20230;-93
2022/02/18 03:52:41;;;;;;;21.33;4.03;;;4.20;88.50;;;;;;5042641;28;20226;-92
2022/02/18 03:55:10;;;;;;;11.83;3.13;;;4.20;88.60;;;;;;5041407;28;20184;-92
2022/02/18 03:57:36;;;;;;;12.83;4.80;;;4.30;88.60;;;;;;5042840;28;20686;-93
2022/02/18 04:00:04;;;;;;;16.43;3.83;;;4.30;88.60;;;;;;5042425;28;20172;-92
2022/02/18 04:02:29;;;;;;;25.80;4.97;;;4.30;88.50;;;;;;5042558;28;20176;-93
2022/02/18 04:04:55;;;;;;;30.13;5.17;;;4.30;88.50;;;;;;5042292;28;20206;-93
2022/02/18 04:07:20;;;;;;;22.07;5.00;;;4.30;88.60;;;;;;5040893;28;20666;-93
2022/02/18 04:09:46;;;;;;;16.27;3.90;;;4.30;88.70;;;;;;5040994;28;20212;-93
2022/02/18 04:12:12;;;;;;;16.77;4.40;;;4.30;88.70;;;;;;5042404;28;20258;-92
2022/02/18 04:14:37;;;;;;;30.07;5.00;;;4.40;88.70;;;;;;5060850;28;20180;-92
2022/02/18 04:17:03;;;;;;;24.30;5.77;;;4.40;88.60;;;;;;5042573;28;20277;-93
2022/02/18 04:19:29;;;;;;;22.33;4.33;;;4.40;88.60;;;;;;5042834;28;20188;-93
2022/02/18 04:21:54;;;;;;;20.33;4.33;;;4.40;88.70;;;;;;5060603;28;20188;-93
2022/02/18 04:24:20;;;;;;;21.80;4.93;;;4.40;88.70;;;;;;5044673;28;20562;-93
2022/02/18 04:26:45;;;;;;;24.73;5.20;;;4.40;88.60;;;;;;5042786;28;20200;-93
2022/02/18 04:29:11;;;;;;;20.53;4.00;;;4.40;88.60;;;;;;5041882;28;20184;-92
2022/02/18 04:31:37;;;;;;;34.50;6.13;;;4.40;88.70;;;;;;5041675;28;20207;-92
2022/02/18 04:34:03;;;;;;;21.50;5.03;;;4.40;88.60;;;;;;5060762;28;20177;-92
2022/02/18 04:36:28;;;;;;;27.87;4.40;;;4.40;88.70;;;;;;5060624;28;20231;-92
2022/02/18 04:38:54;;;;;;;15.27;5.03;;;4.30;88.90;;;;;;5042003;28;20618;-92
2022/02/18 04:41:24;;;;;;;13.70;3.87;;;4.30;88.90;;;;;;5062226;28;20569;-93
2022/02/18 04:43:50;;;;;;;24.33;5.43;;;4.40;88.90;;;;;;5041408;28;20219;-93
2022/02/18 04:46:16;;;;;;;24.23;4.83;;;4.30;88.90;;;;;;5041310;28;20184;-93
2022/02/18 04:48:42;;;;;;;11.60;3.73;;;4.30;88.90;;;;;;5041822;28;20267;-92
2022/02/18 04:51:07;;;;;;;22.07;5.23;;;4.30;88.90;;;;;;5041670;28;20235;-92
2022/02/18 04:53:33;;;;;;;29.60;4.80;;;4.40;88.80;;;;;;5042135;28;20184;-92
2022/02/18 04:55:59;;;;;;;22.33;5.63;;;4.40;88.90;;;;;;5041212;28;20553;-92
2022/02/18 04:58:24;;;;;;;21.97;4.30;;;4.30;89.00;;;;;;5041046;28;20192;-92
2022/02/18 05:00:50;;;;;;;11.27;3.73;;;4.30;89.10;;;;;;5041351;28;20245;-92
2022/02/18 05:03:15;;;;;;;17.87;3.53;;;4.30;89.20;;;;;;5042593;28;20650;-92
2022/02/18 05:05:41;;;;;;;31.33;5.53;;;4.30;89.10;;;;;;5042018;28;20175;-92
2022/02/18 05:08:07;;;;;;;18.47;4.47;;;4.30;89.10;;;;;;5059288;28;20214;-92
2022/02/18 05:10:34;;;;;;;24.10;3.87;;;4.30;89.00;;;;;;5041302;28;20180;-92
2022/02/18 05:12:59;;;;;;;15.63;3.57;;;4.30;89.10;;;;;;5041097;28;20239;-92
2022/02/18 05:15:25;;;;;;;22.20;3.50;;;4.30;89.20;;;;;;5040853;28;20168;-93
2022/02/18 05:17:51;;;;;;;17.60;3.47;;;4.30;89.30;;;;;;5059325;28;20681;-93
2022/02/18 05:20:17;;;;;;;21.77;5.03;;;4.30;89.30;;;;;;5040285;28;20709;-93
2022/02/18 05:22:43;;;;;;;14.43;4.30;;;4.30;89.40;;;;;;5040576;28;20553;-92
2022/02/18 05:25:09;;;;;;;25.73;4.43;;;4.30;89.50;;;;;;5041603;28;20176;-94
2022/02/18 05:27:34;;;;;;;16.97;4.57;;;4.30;89.60;;;;;;5042197;28;20773;-93
2022/02/18 05:30:00;;;;;;;16.20;4.77;;;4.30;89.80;;;;;;5042482;28;20188;-92
2022/02/18 05:32:25;;;;;;;18.10;4.60;;;4.30;89.90;;;;;;5041487;28;20211;-92
2022/02/18 05:34:51;;;;;;;24.07;4.27;;;4.30;89.90;;;;;;5059377;28;20172;-92
2022/02/18 05:37:16;;;;;;;17.43;4.40;;;4.30;90.10;;;;;;5039970;28;20195;-93
2022/02/18 05:39:42;;;;;;;19.40;4.20;;;4.30;90.20;;;;;;5059009;28;20188;-92
2022/02/18 05:42:08;;;;;;;14.83;4.40;;;4.30;90.30;;;;;;5042662;28;20195;-92
2022/02/18 05:44:34;;;;;;;17.57;4.17;;;4.30;90.20;;;;;;5042644;28;20625;-92
2022/02/18 05:47:00;;;;;;;16.93;4.00;;;4.30;90.20;;;;;;5040924;28;20184;-92
2022/02/18 05:49:28;;;;;;;19.97;3.67;;;4.30;90.30;;;;;;5041804;28;20653;-92
2022/02/18 05:51:53;;;;;;;18.37;4.03;;;4.30;90.30;;;;;;5041372;28;20204;-92
2022/02/18 05:54:19;;;;;;;16.57;4.23;;;4.30;90.30;;;;;;5041589;28;20172;-93
2022/02/18 05:56:45;;;;;;;20.70;3.97;;;4.40;90.20;;;;;;5061590;28;20177;-92
2022/02/18 05:59:10;;;;;;;15.93;4.57;;;4.40;90.10;;;;;;5047412;28;20591;-92
2022/02/18 06:01:38;;;;;;;25.83;5.60;;;4.30;90.10;;;;;;5065002;28;20176;-93
2022/02/18 06:04:04;;;;;;;19.47;4.40;;;4.30;90.00;;;;;;5047961;28;20184;-92
2022/02/18 06:06:35;;;;;;;10.90;3.53;;;4.30;90.00;;;;;;5048496;28;20184;-92
2022/02/18 06:09:01;;;;;;;21.17;5.60;;;4.30;90.20;;;;;;5049043;28;20195;-93
2022/02/18 06:11:26;;;;;;;14.00;3.83;;;4.30;90.20;;;;;;5050040;28;20211;-92
2022/02/18 06:13:52;;;;;;;17.40;3.80;;;4.30;90.20;;;;;;5048094;28;20181;-93
2022/02/18 06:16:18;;;;;;;23.50;4.67;;;4.30;90.20;;;;;;5044078;28;20265;-92
2022/02/18 06:18:43;;;;;;;21.37;5.07;;;4.20;90.30;;;;;;5044214;28;20200;-93
2022/02/18 06:21:09;;;;;;;20.80;4.50;;;4.20;90.40;;;;;;5046299;28;20556;-92
2022/02/18 06:23:35;;;;;;;16.00;3.90;;;4.30;90.30;;;;;;5045308;28;20188;-93
2022/02/18 06:26:00;;;;;;;12.80;3.77;;;4.30;90.30;;;;;;5046854;28;20180;-93
2022/02/18 06:28:26;;;;;;;24.23;4.57;;;4.30;90.40;;;;;;5048771;28;20196;-93
2022/02/18 06:30:51;;;;;;;16.30;3.87;;;4.30;90.30;;;;;;5046431;28;20547;-93
2022/02/18 06:33:17;;;;;;;22.63;4.63;;;4.30;90.30;;;;;;5047512;28;20191;-92
2022/02/18 06:35:43;;;;;;;18.47;4.07;;;4.30;90.30;;;;;;5052726;28;20516;-93
2022/02/18 06:38:10;;;;;;;17.13;4.50;;;4.30;90.40;;;;;;5053089;28;20451;-94
2022/02/18 06:40:36;;;;;;;15.63;5.60;;;4.30;90.40;;;;;;5048092;28;20431;-93
2022/02/18 06:43:02;;;;;;;20.63;5.17;;;4.20;90.40;;;;;;5044513;28;20180;-93
2022/02/18 06:45:30;;;;;;;11.70;3.77;;;4.30;90.40;;;;;;5044777;28;20275;-93
2022/02/18 06:47:56;;;;;;;26.17;4.73;;;4.20;90.50;;;;;;5047520;28;20225;-93
2022/02/18 06:50:21;;;;;;;11.40;3.70;;;4.20;90.70;;;;;;5045866;28;20235;-93
2022/02/18 06:52:50;;;;;;;23.50;4.83;;;4.20;90.70;;;;;;5046135;28;20210;-93
2022/02/18 06:55:24;;;;;;;17.07;5.20;;;4.20;90.80;;;;;;5046164;28;20168;-93
2022/02/18 06:57:50;;;;;;;10.63;4.83;;;4.20;90.80;;;;;;5045285;28;20292;-93
2022/02/18 07:00:16;;;;;;;14.67;5.63;;;4.20;90.80;;;;;;5046481;28;20172;-93
2022/02/18 07:02:42;;;;;;;16.37;5.20;;;4.20;90.80;;;;;;5045905;28;20202;-93
2022/02/18 07:05:13;;;;;;;17.20;5.20;;;4.20;90.90;;;;;;5046118;28;20202;-93
2022/02/18 07:07:39;;;;;;;14.43;5.83;;;4.20;90.90;;;;;;5045112;28;20191;-93
2022/02/18 07:10:07;;;;;;;21.13;5.70;;;4.20;90.80;;;;;;5046010;28;20181;-93
2022/02/18 07:12:33;;;;;;;18.47;5.60;;;4.30;90.80;;;;;;5062984;28;20204;-93
2022/02/18 07:14:59;;;;;;;17.30;5.00;;;4.30;90.90;;;;;;5045076;28;20203;-93
2022/02/18 07:17:28;;;;;;;22.83;5.50;;;4.30;91.10;;;;;;5046291;28;20196;-93
2022/02/18 07:19:55;;;;;;;19.67;6.03;;;4.30;91.10;;;;;;5046400;28;20233;-93
2022/02/18 07:22:21;;;;;;;20.43;6.07;;;4.30;91.10;;;;;;5044709;28;20267;-92
2022/02/18 07:24:47;;;;;;;24.57;5.77;;;4.30;91.00;;;;;;5044475;28;20280;-93
2022/02/18 07:27:13;;;;;;;16.73;6.07;;;4.30;91.00;;;;;;5044363;28;20233;-93
2022/02/18 07:29:40;;;;;;;26.57;5.17;;;4.30;91.00;;;;;;5043464;28;20263;-93
2022/02/18 07:32:07;;;;;;;18.70;5.63;;;4.40;91.10;;;;;;5043492;28;20206;-93
2022/02/18 07:34:33;;;;;;;21.10;6.03;;;4.40;91.00;;;;;;5045007;28;20259;-93
2022/02/18 07:36:58;;;;;;;18.07;5.53;;;4.50;90.90;;;;;;5042357;28;20627;-92
2022/02/18 07:39:24;;;;;;;14.07;5.70;;;4.50;91.00;;;;;;5043160;28;20191;-92
2022/02/18 07:41:58;;;;;;;9.70;4.13;;;4.50;91.00;;;;;;5043555;28;20192;-90
2022/02/18 07:44:24;;;;;;;15.17;5.23;;;4.50;91.00;;;;;;5062043;28;20160;-92
2022/02/18 07:46:49;;;;;;;12.97;4.77;;;4.50;91.10;;;;;;5043013;28;20175;-93
2022/02/18 07:49:22;;;;;;;21.50;5.97;;;4.60;91.00;;;;;;5043271;28;20230;-92
2022/02/18 07:51:47;;;;;;;14.73;4.73;;;4.60;90.70;;;;;;5042348;28;20666;-92
2022/02/18 07:54:13;;;;;;;15.30;5.10;;;4.60;90.70;;;;;;5041942;28;20214;-93
2022/02/18 07:56:38;;;;;;;14.57;5.80;;;4.60;90.70;;;;;;5059495;28;20180;-92
2022/02/18 07:59:04;;;;;;;14.13;4.63;;;4.60;90.40;;;;;;5041587;28;20215;-92
2022/02/18 08:01:29;;;;;;;25.93;6.77;;;4.70;90.60;;;;;;5041989;28;20184;-92
2022/02/18 08:03:56;;;;;;;14.40;6.73;;;4.70;90.50;;;;;;5041527;28;20235;-92
2022/02/18 08:06:22;;;;;;;14.07;5.30;;;4.70;90.40;;;;;;5041290;28;20180;-93
2022/02/18 08:08:47;;;;;;;12.47;5.13;;;4.80;90.30;;;;;;5040799;28;20206;-92
2022/02/18 08:11:16;;;;;;;16.43;4.77;;;4.80;90.20;;;;;;5040859;28;20236;-93
2022/02/18 08:13:42;;;;;;;19.30;5.73;;;4.80;90.20;;;;;;5041950;28;20173;-92
2022/02/18 08:16:08;;;;;;;14.90;5.37;;;4.80;90.20;;;;;;5041604;28;20215;-93
2022/02/18 08:18:34;;;;;;;24.30;5.83;;;4.80;90.10;;;;;;5041492;28;20197;-93
2022/02/18 08:20:59;;;;;;;23.07;5.03;;;4.90;89.80;;;;;;5043306;28;20180;-92
2022/02/18 08:23:25;;;;;;;14.73;5.47;;;4.90;89.80;;;;;;5041242;28;20177;-92
2022/02/18 08:25:52;;;;;;;9.30;4.33;;;4.90;89.90;;;;;;5042756;28;20188;-92
2022/02/18 08:28:20;;;;;;;10.60;4.57;;;4.90;90.00;;;;;;5058240;28;20197;-92
2022/02/18 08:30:47;;;;;;;10.40;3.97;;;5.00;90.10;;;;;;5041869;28;20188;-92
2022/02/18 08:33:13;;;;;;;20.50;6.20;;;5.00;89.80;;;;;;5058727;28;20218;-92
2022/02/18 08:35:39;;;;;;;17.23;5.77;;;5.00;90.00;;;;;;5041835;28;20205;-92
2022/02/18 08:38:05;;;;;;;10.80;4.53;;;5.00;90.30;;;;;;5040782;28;20197;-92
2022/02/18 08:40:32;;;;;;;8.70;5.30;;;5.10;90.20;;;;;;5065911;28;20241;-93
2022/02/18 08:42:58;;;;;;;18.47;5.80;;;5.10;90.40;;;;;;5070686;28;20227;-92
2022/02/18 08:45:24;;;;;;;12.20;5.07;;;5.10;90.60;;;;;;5042856;28;20175;-92
2022/02/18 08:47:49;;;;;;;16.73;5.53;;;5.10;90.90;;;;;;5044335;28;20192;-93
2022/02/18 08:50:16;;;;;;;16.07;6.93;;;5.10;91.00;;;;;;5042737;28;20179;-92
2022/02/18 08:52:43;;;;;;;12.90;5.57;;;5.10;91.20;;;;;;5043932;28;20260;-92
2022/02/18 08:55:11;;;;;;;20.70;6.77;;;5.20;91.40;;;;;;5045161;28;20211;-92
2022/02/18 08:57:38;;;;;;;17.27;6.80;;;5.20;91.40;;;;;;5046388;28;20215;-93
2022/02/18 09:00:05;;;;;;;17.40;6.53;;;5.20;91.50;;;;;;5047983;28;20207;-92
2022/02/18 09:02:34;;;;;;;18.70;8.30;;;5.20;91.60;;;;;;5048369;28;20186;-92
2022/02/18 09:05:03;;;;;;;18.70;8.43;;;5.20;91.70;;;;;;5049514;28;20212;-93
2022/02/18 09:07:30;;;;;;;18.90;6.90;;;5.20;91.70;;;;;;5072573;28;20193;-92
2022/02/18 09:09:58;;;;;;;26.10;9.37;;;5.30;91.70;;;;;;5058977;28;20186;-92
2022/02/18 09:12:25;;;;;;;19.40;8.17;;;5.30;91.70;;;;;;5060802;28;20214;-91
2022/02/18 09:14:51;;;;;;;21.13;8.93;;;5.30;91.70;;;;;;5056475;28;20180;-92
2022/02/18 09:17:17;;;;;;;25.90;9.33;;;5.30;91.80;;;;;;5068798;28;20205;-92
2022/02/18 09:19:43;;;;;;;18.07;8.27;;;5.30;91.90;;;;;;5052257;28;20184;-93
2022/02/18 09:22:09;;;;;;;23.37;9.73;;;5.30;92.00;;;;;;5052700;28;20178;-93
2022/02/18 09:24:35;;;;;;;27.60;9.27;;;5.30;91.90;;;;;;5051896;28;20179;-92
2022/02/18 09:27:01;;;;;;;25.67;8.83;;;5.30;91.90;;;;;;5055797;28;20167;-91
2022/02/18 09:29:27;;;;;;;26.87;8.93;;;5.30;91.90;;;;;;5054117;28;20183;-92
2022/02/18 09:31:54;;;;;;;30.23;11.90;;;5.30;92.00;;;;;;5049078;28;20598;-92
2022/02/18 09:34:20;;;;;;;22.93;9.73;;;5.20;92.10;;;;;;5049656;28;20232;-92
2022/02/18 09:36:46;;;;;;;22.23;10.07;;;5.20;92.40;;;;;;5052440;28;20195;-92
2022/02/18 09:39:12;;;;;;;25.27;10.97;;;5.20;92.40;;;;;;5052226;28;20190;-93
2022/02/18 09:41:41;;;;;;;25.27;9.57;;;5.20;92.50;;;;;;5053148;28;20209;-93
2022/02/18 09:44:12;;;;;;;31.87;10.43;;;5.20;92.50;;;;;;5054704;28;20183;-92
2022/02/18 09:46:39;;;;;;;25.00;9.30;;;5.20;92.50;;;;;;5075219;28;20171;-93
2022/02/18 09:49:05;;;;;;;25.53;8.90;;;5.20;92.50;;;;;;5059133;28;20198;-93
2022/02/18 09:51:35;;;;;;;29.10;9.40;;;5.20;92.50;;;;;;5076961;28;20206;-93
2022/02/18 09:54:01;;;;;;;24.87;8.73;;;5.20;92.50;;;;;;5059843;28;20167;-92
2022/02/18 09:56:30;;;;;;;25.57;9.47;;;5.20;92.50;;;;;;5060386;28;20193;-92
2022/02/18 09:59:02;;;;;;;28.67;9.20;;;5.20;92.50;;;;;;5060799;28;20183;-90
2022/02/18 10:01:34;;;;;;;21.40;9.20;;;5.20;92.50;;;;;;5061360;28;20162;-89
2022/02/18 10:04:03;;;;;;;22.80;8.97;;;5.30;92.60;;;;;;5061469;28;20187;-88
2022/02/18 10:06:30;;;;;;;23.73;8.73;;;5.30;92.50;;;;;;5061174;28;20163;-90
2022/02/18 10:09:00;;;;;;;28.73;8.70;;;5.30;92.60;;;;;;5061066;28;20270;-91
2022/02/18 10:11:28;;;;;;;19.37;9.03;;;5.30;92.60;;;;;;5062591;28;20214;-93
2022/02/18 10:13:57;;;;;;;24.60;9.13;;;5.30;92.60;;;;;;5064898;28;20159;-89
2022/02/18 10:16:29;;;;;;;16.37;8.37;;;5.30;92.60;;;;;;5064989;28;20164;-90
2022/02/18 10:18:56;;;;;;;28.17;9.17;;;5.30;92.60;;;;;;5053717;28;20206;-92
2022/02/18 10:21:27;;;;;;;21.50;8.43;;;5.30;92.50;;;;;;5062132;28;20163;-90
2022/02/18 10:24:22;;;;;;;22.73;8.33;;;5.40;92.60;;;;;;5064222;28;20205;-91
2022/02/18 10:26:54;;;;;;;24.27;7.70;;;5.30;92.50;;;;;;5064328;28;20172;-93
2022/02/18 10:29:22;;;;;;;21.80;8.23;;;5.40;92.60;;;;;;5063571;28;20235;-92
2022/02/18 10:32:12;;;;;;;17.93;6.83;;;5.40;92.60;;;;;;5064463;28;20233;-92
2022/02/18 10:34:55;;;;;;;20.83;7.43;;;5.40;92.60;;;;;;5064254;28;20427;-93
2022/02/18 10:37:23;;;;;;;22.90;8.07;;;5.40;92.60;;;;;;5081000;28;20260;-93
2022/02/18 10:45:15;;;;;;;17.80;9.00;;;5.50;92.70;;;;;;5302624;23;20253;-89
2022/02/18 10:53:21;;;;;;;27.60;9.17;;;5.60;92.40;;;;;;5530452;23;20244;-93
2022/02/18 10:55:55;;;;;;;16.97;5.83;;;5.70;92.40;;;;;;5050547;28;20238;-92
2022/02/18 10:58:27;;;;;;;22.03;6.97;;;5.70;92.20;;;;;;5037548;28;20217;-92
2022/02/18 11:01:10;;;;;;;17.53;6.87;;;5.70;92.10;;;;;;5030675;28;20177;-93
2022/02/18 11:03:39;;;;;;;17.57;6.03;;;5.70;92.10;;;;;;5031106;28;20152;-93
2022/02/18 11:06:12;;;;;;;16.53;7.00;;;5.70;91.90;;;;;;5029795;28;20180;-93
2022/02/18 11:08:39;;;;;;;15.07;7.00;;;5.60;91.90;;;;;;5026343;28;20250;-93
2022/02/18 11:11:10;;;;;;;18.77;6.57;;;5.60;91.90;;;;;;5028725;28;20174;-93
2022/02/18 11:13:37;;;;;;;18.23;7.20;;;5.70;92.00;;;;;;5031511;28;20203;-92
2022/02/18 11:16:04;;;;;;;14.20;7.03;;;5.70;92.00;;;;;;5028833;28;20177;-93
2022/02/18 11:18:30;;;;;;;15.63;7.17;;;5.60;92.00;;;;;;5022428;28;20682;-92
2022/02/18 11:20:57;;;;;;;19.67;8.83;;;5.70;92.10;;;;;;5015606;28;20234;-92
2022/02/18 11:23:23;;;;;;;15.40;7.93;;;5.70;92.10;;;;;;5014552;28;20177;-92
2022/02/18 11:25:49;;;;;;;18.23;8.90;;;5.60;92.20;;;;;;5015301;28;20662;-92
2022/02/18 11:28:15;;;;;;;19.43;8.57;;;5.60;92.30;;;;;;5021746;28;20191;-93
2022/02/18 11:30:43;;;;;;;20.30;9.27;;;5.60;92.50;;;;;;5032065;28;20192;-93
2022/02/18 11:33:36;;;;;;;24.93;9.13;;;5.60;92.60;;;;;;5025303;28;20241;-92
2022/02/18 11:36:26;;;;;;;16.13;8.93;;;5.60;92.70;;;;;;5034991;28;20180;-92
2022/02/18 11:39:20;;;;;;;23.87;9.27;;;5.60;92.90;;;;;;5032230;28;20199;-92
2022/02/18 11:42:04;;;;;;;17.17;9.03;;;5.70;93.00;;;;;;5028015;28;20184;-92
2022/02/18 11:44:32;;;;;;;21.50;10.20;;;5.70;93.10;;;;;;5031596;28;20169;-93
2022/02/18 11:47:42;;;;;;;21.60;9.43;;;5.60;93.20;;;;;;5037223;28;20172;-93
2022/02/18 11:50:20;;;;;;;24.83;10.77;;;5.70;93.40;;;;;;5026401;28;20180;-92
2022/02/18 11:52:52;;;;;;;15.87;8.67;;;5.80;93.50;;;;;;5032249;28;20249;-92
2022/02/18 11:55:28;;;;;;;8.43;4.53;;;5.80;93.50;;;;;;5032313;28;20219;-92
2022/02/18 11:58:16;;;;;;;19.30;7.77;;;6.00;93.50;;;;;;5029748;28;20185;-92
2022/02/18 12:00:50;;;;;;;17.97;8.50;;;5.90;93.50;;;;;;5030888;28;20185;-93
2022/02/18 12:03:23;;;;;;;14.57;8.47;;;5.90;93.70;;;;;;5030411;28;20638;-92
2022/02/18 12:06:09;;;;;;;16.43;8.70;;;5.90;93.80;;;;;;5027328;28;20176;-92
2022/02/18 12:08:40;;;;;;;12.37;6.50;;;5.90;93.90;;;;;;5025872;28;20199;-92
2022/02/18 12:11:17;;;;;;;21.27;6.63;;;5.90;94.00;;;;;;5021773;28;20166;-91
2022/02/18 12:13:57;;;;;;;9.73;6.07;;;6.00;94.10;;;;;;5017981;28;20232;-91
2022/02/18 12:16:26;;;;;;;13.20;6.50;;;6.10;94.10;;;;;;5024850;28;20191;-93
2022/02/18 12:19:04;;;;;;;11.07;6.20;;;6.00;94.20;;;;;;5015285;28;20204;-92
2022/02/18 12:21:33;;;;;;;9.23;4.97;;;6.20;94.20;;;;;;5020565;28;20160;-92
2022/02/18 12:24:31;;;;;;;11.33;4.70;;;6.20;94.30;;;;;;5027079;28;20193;-91
2022/02/18 12:27:18;;;;;;;14.57;6.17;;;6.20;94.20;;;;;;5026323;28;20244;-92
2022/02/18 12:29:55;;;;;;;12.33;5.77;;;6.30;94.30;;;;;;5034804;28;20167;-93
2022/02/18 12:32:21;;;;;;;13.70;6.83;;;6.30;94.20;;;;;;5031594;28;20207;-92
2022/02/18 12:35:10;;;;;;;13.27;6.70;;;6.40;94.20;;;;;;5030272;28;20205;-92
2022/02/18 12:37:36;;;;;;;9.27;4.47;;;6.50;94.20;;;;;;5031998;28;20268;-92
2022/02/18 12:40:27;;;;;;;11.67;5.07;;;6.60;94.10;;;;;;5030977;28;20185;-93
2022/02/18 12:43:05;;;;;;;10.33;4.23;;;6.60;94.10;;;;;;5032287;28;20185;-91
2022/02/18 12:45:40;;;;;;;12.47;5.43;;;6.70;94.00;;;;;;5030544;28;20177;-92
2022/02/18 12:48:07;;;;;;;10.85;5.88;;;6.80;93.90;;;;;;5031388;28;20068;-93
2022/02/18 12:50:42;;;;;;;8.50;3.70;;;6.80;93.90;;;;;;5033255;28;20168;-92
2022/02/18 12:53:18;;;;;;;9.37;4.40;;;6.90;93.90;;;;;;5035789;28;20243;-93
2022/02/18 12:55:56;;;;;;;6.50;4.17;;;6.90;94.00;;;;;;5033886;28;20188;-92
2022/02/18 12:58:22;;;;;;;6.63;3.97;;;7.00;94.00;;;;;;5031260;28;20209;-92
2022/02/18 13:00:51;;;;;;;4.30;3.17;;;7.00;94.00;;;;;;5033242;28;20169;-92
2022/02/18 13:03:17;;;;;;;7.03;3.93;;;7.10;94.10;;;;;;5032198;28;20174;-92
2022/02/18 13:06:00;;;;;;;6.30;3.80;;;7.30;93.70;;;;;;5030325;28;20236;-91
2022/02/18 13:08:26;;;;;;;7.33;4.33;;;7.30;93.70;;;;;;5029718;28;20228;-92